»·PEaware :: ASA1129 KBUR-CYVR

ASA1129 :: KBUR-CYVR

FLIGHT INFORMATION

Flight Status: Arrived
Operator:
Alaska Airlines
More flights by this operator :: More flights under this callsign
Pilot: Kyle K. (11122)
Aircraft: BOEING 737-300
(B733)
More flights by this aircraft type
Origin: KBUR Bob Hope-Burbank
United States
Destination: CYVR Vancouver Intl
Canada
More flights between these airports :: More routes between these airports
Route: +VNY3 GMN EHF J5 POWEL MEVGO IMEDI3
File this flight plan on PilotEdge
Remarks:
Altitude:
(Current/Filed)
32,000ft
Speed:
(Current/Filed)
450kts
Departed: 09-Sep-16 02:20 PM
Arrived: 09-Sep-16 05:39 PM
Distance/Time
Traveled:
925nm/3:19
Distance/Time
To Go:
Arrived

Flight Plot

Page will automatically refresh every two minutes.

Flight plan parsing failed; only flown route is shown


Map Options




Map Legend


Flown Route
Filed Route
Departure Airport
Arrival Airport
Navaid (VOR, NDB)
Fix

Horizontal Profiles

Position Reports

Time Latitude Longitude Heading Altitude Ground
Speed
09-Sep-16 13:48 34.196789 -118.352823 178 699ft 0kts
09-Sep-16 13:49 34.196789 -118.352823 178 699ft 0kts
09-Sep-16 13:50 34.196789 -118.352823 178 699ft 0kts
09-Sep-16 13:51 34.196789 -118.352823 178 699ft 0kts
09-Sep-16 13:52 34.196789 -118.352823 178 699ft 0kts
09-Sep-16 13:53 34.196789 -118.352823 178 699ft 0kts
09-Sep-16 13:54 34.196789 -118.352823 178 699ft 0kts
09-Sep-16 13:55 34.196789 -118.352823 178 699ft 0kts
09-Sep-16 13:56 34.196789 -118.352823 178 699ft 0kts
09-Sep-16 13:57 34.196789 -118.352823 178 699ft 0kts
09-Sep-16 13:58 34.196789 -118.352823 178 699ft 0kts
09-Sep-16 13:59 34.196789 -118.352823 178 699ft 0kts
09-Sep-16 14:00 34.196789 -118.352823 178 699ft 0kts
09-Sep-16 14:01 34.196789 -118.352823 178 699ft 0kts
09-Sep-16 14:02 34.196789 -118.352823 178 699ft 0kts
09-Sep-16 14:03 34.196789 -118.352823 178 699ft 0kts
09-Sep-16 14:04 34.196789 -118.352823 178 699ft 0kts
09-Sep-16 14:05 34.197080 -118.352836 178 700ft 0kts
09-Sep-16 14:06 34.197213 -118.352828 190 700ft 0kts
09-Sep-16 14:07 34.197213 -118.352828 190 700ft 0kts
09-Sep-16 14:08 34.197213 -118.352828 190 700ft 0kts
09-Sep-16 14:09 34.197135 -118.353120 273 701ft 0kts
09-Sep-16 14:10 34.197136 -118.353146 272 701ft 0kts
09-Sep-16 14:12 34.198850 -118.355391 346 713ft 12kts
09-Sep-16 14:13 34.202363 -118.356331 348 727ft 24kts
09-Sep-16 14:13 34.205704 -118.357296 347 740ft 12kts
09-Sep-16 14:15 34.209119 -118.358218 349 759ft 25kts
09-Sep-16 14:15 34.211807 -118.359256 310 770ft 8kts
09-Sep-16 14:16 34.211784 -118.360294 165 772ft 0kts
09-Sep-16 14:17 34.199741 -118.356882 163 720ft 159kts
09-Sep-16 14:18 34.170367 -118.355417 203 1948ft 195kts
09-Sep-16 14:19 34.142190 -118.385133 225 3587ft 201kts
09-Sep-16 14:20 34.112493 -118.428021 239 4025ft 263kts
09-Sep-16 14:21 34.105613 -118.484596 301 5603ft 271kts
09-Sep-16 14:22 34.144408 -118.510990 351 7381ft 275kts
09-Sep-16 14:23 34.189970 -118.519209 352 9057ft 283kts
09-Sep-16 14:24 34.252952 -118.530196 352 11172ft 293kts
09-Sep-16 14:25 34.304338 -118.540084 338 12355ft 315kts
09-Sep-16 14:26 34.361307 -118.579974 331 13142ft 354kts
09-Sep-16 14:27 34.411606 -118.612261 332 14605ft 359kts
09-Sep-16 14:28 34.463791 -118.645216 332 15932ft 367kts
09-Sep-16 14:29 34.521018 -118.680856 332 17285ft 374kts
09-Sep-16 14:30 34.580368 -118.718116 332 18586ft 381kts
09-Sep-16 14:31 34.638682 -118.754911 332 19778ft 388kts
09-Sep-16 14:32 34.697452 -118.792075 332 20896ft 395kts
09-Sep-16 14:33 34.757522 -118.830123 332 21961ft 401kts
09-Sep-16 14:34 34.822169 -118.867318 343 22995ft 408kts
09-Sep-16 14:35 34.897238 -118.892032 344 24060ft 414kts
09-Sep-16 14:36 34.984630 -118.921943 344 25214ft 422kts
09-Sep-16 14:37 35.065581 -118.949911 344 26198ft 428kts
09-Sep-16 14:38 35.145691 -118.977647 344 27100ft 434kts
09-Sep-16 14:39 35.229819 -119.006841 344 28150ft 436kts
09-Sep-16 14:40 35.313048 -119.035786 344 29318ft 432kts
09-Sep-16 14:41 35.398364 -119.065524 344 30332ft 431kts
09-Sep-16 14:42 35.491513 -119.097430 349 31359ft 428kts
09-Sep-16 14:43 35.588863 -119.111231 354 32019ft 429kts
09-Sep-16 14:44 35.685497 -119.123822 353 31995ft 424kts
09-Sep-16 14:45 35.775504 -119.135670 353 32043ft 425kts
09-Sep-16 14:46 35.857020 -119.146426 353 32004ft 425kts
09-Sep-16 14:47 35.941053 -119.157573 353 32129ft 423kts
09-Sep-16 14:48 36.032770 -119.169837 353 32837ft 425kts
09-Sep-16 14:49 36.112160 -119.180371 353 33495ft 423kts
09-Sep-16 14:50 36.186239 -119.190215 353 33986ft 423kts
09-Sep-16 14:51 36.253289 -119.199149 353 34011ft 423kts
09-Sep-16 14:52 36.336266 -119.210219 353 33993ft 421kts
09-Sep-16 14:53 36.416405 -119.220931 353 34002ft 422kts
09-Sep-16 14:54 36.501504 -119.232329 353 33999ft 422kts
09-Sep-16 14:55 36.575402 -119.242250 353 34000ft 422kts
09-Sep-16 14:56 36.664833 -119.254281 353 34000ft 422kts
09-Sep-16 14:57 36.754823 -119.266415 353 34000ft 422kts
09-Sep-16 14:58 36.830026 -119.276610 353 34000ft 422kts
09-Sep-16 14:59 36.902537 -119.286497 353 34000ft 422kts
09-Sep-16 15:00 36.977192 -119.296647 353 34000ft 422kts
09-Sep-16 15:01 37.056668 -119.307468 353 34000ft 422kts
09-Sep-16 15:02 37.131032 -119.317613 353 34000ft 422kts
09-Sep-16 15:03 37.211552 -119.328622 353 34000ft 422kts
09-Sep-16 15:04 37.285914 -119.338810 353 34000ft 422kts
09-Sep-16 15:05 37.359983 -119.348978 353 34000ft 422kts
09-Sep-16 15:06 37.434148 -119.359179 353 34000ft 422kts
09-Sep-16 15:07 37.508507 -119.369427 353 34000ft 422kts
09-Sep-16 15:08 37.588996 -119.380543 353 34000ft 422kts
09-Sep-16 15:09 37.679023 -119.393003 353 34000ft 422kts
09-Sep-16 15:10 37.768675 -119.405442 353 34000ft 422kts
09-Sep-16 15:11 37.868252 -119.419296 353 34000ft 422kts
09-Sep-16 15:12 37.965264 -119.432844 353 34000ft 422kts
09-Sep-16 15:14 38.062926 -119.446521 353 34000ft 422kts
09-Sep-16 15:15 38.140376 -119.457377 353 34000ft 422kts
09-Sep-16 15:15 38.207416 -119.466793 353 34000ft 422kts
09-Sep-16 15:16 38.287979 -119.478130 353 34000ft 422kts
09-Sep-16 15:17 38.370290 -119.489750 353 34000ft 422kts
09-Sep-16 15:18 38.452790 -119.501432 353 34000ft 422kts
09-Sep-16 15:19 38.547219 -119.514815 353 34000ft 422kts
09-Sep-16 15:20 38.652259 -119.529907 352 33999ft 422kts
09-Sep-16 15:21 38.758732 -119.546441 353 34000ft 422kts
09-Sep-16 15:22 38.854002 -119.560096 353 34000ft 422kts
09-Sep-16 15:23 38.951492 -119.574074 353 34000ft 422kts
09-Sep-16 15:24 39.046295 -119.587705 353 34000ft 422kts
09-Sep-16 15:25 39.141443 -119.601421 353 34000ft 422kts
09-Sep-16 15:26 39.244851 -119.616374 353 34000ft 422kts
09-Sep-16 15:27 39.352333 -119.631962 353 34000ft 422kts
09-Sep-16 15:28 39.439581 -119.644649 353 34000ft 422kts
09-Sep-16 15:29 39.526375 -119.656894 353 34000ft 422kts
09-Sep-16 15:30 39.612299 -119.678096 347 34000ft 422kts
09-Sep-16 15:31 39.700846 -119.702582 347 34000ft 422kts
09-Sep-16 15:32 39.792076 -119.727793 347 34000ft 422kts
09-Sep-16 15:33 39.883521 -119.753130 347 34000ft 422kts
09-Sep-16 15:34 39.970979 -119.777599 347 34000ft 422kts
09-Sep-16 15:35 40.056539 -119.801450 347 34000ft 422kts
09-Sep-16 15:36 40.140378 -119.824851 347 34000ft 422kts
09-Sep-16 15:37 40.224115 -119.848284 347 34000ft 422kts
09-Sep-16 15:38 40.306508 -119.871398 347 34000ft 422kts
09-Sep-16 15:39 40.389566 -119.894757 347 34000ft 422kts
09-Sep-16 15:40 40.470802 -119.917662 347 34000ft 422kts
09-Sep-16 15:41 40.550694 -119.940241 347 34000ft 422kts
09-Sep-16 15:42 40.629433 -119.962547 347 34000ft 422kts
09-Sep-16 15:43 40.707881 -119.984829 347 34000ft 422kts
09-Sep-16 15:44 40.785272 -120.006861 347 34000ft 422kts
09-Sep-16 15:45 40.863517 -120.029206 347 34000ft 422kts
09-Sep-16 15:46 40.942122 -120.051751 347 34000ft 422kts
09-Sep-16 15:47 41.021109 -120.074431 347 34000ft 422kts
09-Sep-16 15:48 41.110994 -120.100306 347 33999ft 422kts
09-Sep-16 15:49 41.200606 -120.127090 346 34000ft 422kts
09-Sep-16 15:50 41.288672 -120.153425 347 34000ft 422kts
09-Sep-16 15:51 41.376573 -120.180207 347 34314ft 418kts
09-Sep-16 15:52 41.466615 -120.207896 346 34666ft 427kts
09-Sep-16 15:53 41.559692 -120.235555 347 35145ft 429kts
09-Sep-16 15:54 41.653839 -120.262801 347 35783ft 427kts
09-Sep-16 15:55 41.747636 -120.290019 347 36015ft 429kts
09-Sep-16 15:56 41.840288 -120.316986 347 35995ft 426kts
09-Sep-16 15:57 41.931501 -120.343608 347 36000ft 427kts
09-Sep-16 15:58 42.021950 -120.370087 347 36000ft 427kts
09-Sep-16 15:59 42.113788 -120.397053 347 35999ft 427kts
09-Sep-16 16:00 42.221480 -120.428773 347 36000ft 427kts
09-Sep-16 16:01 42.330215 -120.460915 347 36000ft 427kts
09-Sep-16 16:02 42.438406 -120.493007 347 36000ft 427kts
09-Sep-16 16:03 42.545815 -120.524216 347 36000ft 427kts
09-Sep-16 16:04 42.654961 -120.559734 346 36000ft 427kts
09-Sep-16 16:05 42.763346 -120.596199 346 36000ft 427kts
09-Sep-16 16:06 42.872027 -120.632886 346 36000ft 427kts
09-Sep-16 16:07 42.979140 -120.668630 346 36000ft 427kts
09-Sep-16 16:08 43.088903 -120.705697 345 36000ft 427kts
09-Sep-16 16:09 43.195761 -120.742163 345 36000ft 427kts
09-Sep-16 16:10 43.304747 -120.779492 345 36000ft 427kts
09-Sep-16 16:11 43.413868 -120.817004 345 36000ft 427kts
09-Sep-16 16:12 43.518112 -120.852970 345 36000ft 427kts
09-Sep-16 16:13 43.630317 -120.891827 345 36000ft 427kts
09-Sep-16 16:14 43.736596 -120.928771 345 36000ft 427kts
09-Sep-16 16:15 43.839511 -120.964675 345 36000ft 427kts
09-Sep-16 16:16 43.922978 -120.993885 345 36000ft 427kts
09-Sep-16 16:18 44.032368 -121.032299 345 36000ft 427kts
09-Sep-16 16:18 44.099515 -121.055949 345 36000ft 427kts
09-Sep-16 16:19 44.209010 -121.093997 347 36000ft 427kts
09-Sep-16 16:20 44.304017 -121.122051 348 35961ft 430kts
09-Sep-16 16:21 44.405786 -121.151776 348 35989ft 438kts
09-Sep-16 16:22 44.518216 -121.185564 348 36003ft 439kts
09-Sep-16 16:23 44.624078 -121.217503 348 35999ft 438kts
09-Sep-16 16:24 44.727660 -121.248871 348 36000ft 439kts
09-Sep-16 16:25 44.835412 -121.281623 348 36000ft 439kts
09-Sep-16 16:26 44.944081 -121.314782 348 36000ft 439kts
09-Sep-16 16:27 45.053998 -121.348453 348 36000ft 439kts
09-Sep-16 16:28 45.161621 -121.380469 348 35972ft 443kts
09-Sep-16 16:29 45.270817 -121.414049 347 35994ft 446kts
09-Sep-16 16:30 45.380957 -121.448236 347 36001ft 447kts
09-Sep-16 16:31 45.480280 -121.479179 347 35999ft 447kts
09-Sep-16 16:32 45.569781 -121.507161 347 36000ft 447kts
09-Sep-16 16:33 45.672711 -121.539452 347 36000ft 447kts
09-Sep-16 16:34 45.784200 -121.574565 347 35999ft 447kts
09-Sep-16 16:35 45.895890 -121.609889 347 36000ft 447kts
09-Sep-16 16:36 46.009520 -121.645973 347 36000ft 447kts
09-Sep-16 16:37 46.118299 -121.679828 347 36000ft 447kts
09-Sep-16 16:38 46.227149 -121.714620 347 36000ft 447kts
09-Sep-16 16:39 46.337256 -121.750017 347 36000ft 447kts
09-Sep-16 16:40 46.446660 -121.785329 347 36000ft 447kts
09-Sep-16 16:41 46.554377 -121.820242 347 36000ft 447kts
09-Sep-16 16:42 46.660781 -121.854867 347 36000ft 447kts
09-Sep-16 16:43 46.763843 -121.888538 347 36000ft 447kts
09-Sep-16 16:44 46.865480 -121.921872 347 36000ft 447kts
09-Sep-16 16:45 46.946984 -121.948699 347 36000ft 447kts
09-Sep-16 16:46 47.012912 -121.970458 347 36000ft 447kts
09-Sep-16 16:47 47.077925 -121.991972 347 36000ft 447kts
09-Sep-16 16:48 47.157718 -122.017649 348 35995ft 447kts
09-Sep-16 16:49 47.231363 -122.040963 347 36001ft 448kts
09-Sep-16 16:50 47.300788 -122.064243 347 36000ft 448kts
09-Sep-16 16:51 47.376850 -122.089918 347 35999ft 448kts
09-Sep-16 16:52 47.457076 -122.117074 347 36000ft 448kts
09-Sep-16 16:53 47.529189 -122.141556 347 36000ft 448kts
09-Sep-16 16:54 47.593397 -122.163414 347 36000ft 448kts
09-Sep-16 16:55 47.657400 -122.185255 347 36000ft 448kts
09-Sep-16 16:56 47.720183 -122.206733 347 36000ft 448kts
09-Sep-16 16:57 47.783975 -122.228611 347 36000ft 448kts
09-Sep-16 16:58 47.843915 -122.249218 347 36000ft 448kts
09-Sep-16 16:59 47.911982 -122.272681 347 35141ft 440kts
09-Sep-16 17:00 47.989121 -122.297895 348 32669ft 440kts
09-Sep-16 17:01 48.065803 -122.320353 349 30510ft 442kts
09-Sep-16 17:02 48.144479 -122.343197 349 28253ft 444kts
09-Sep-16 17:03 48.239999 -122.371015 349 26213ft 425kts
09-Sep-16 17:04 48.319694 -122.394307 349 24544ft 411kts
09-Sep-16 17:05 48.399043 -122.417571 349 22881ft 399kts
09-Sep-16 17:06 48.461941 -122.436064 349 21565ft 389kts
09-Sep-16 17:07 48.521659 -122.453665 349 20313ft 380kts
09-Sep-16 17:08 48.591786 -122.475515 348 18406ft 374kts
09-Sep-16 17:09 48.654457 -122.494520 349 17150ft 350kts
09-Sep-16 17:10 48.711040 -122.517081 326 16778ft 326kts
09-Sep-16 17:11 48.749808 -122.583888 308 15740ft 316kts
09-Sep-16 17:12 48.782321 -122.647660 308 14714ft 310kts
09-Sep-16 17:13 48.812787 -122.706311 307 13782ft 304kts
09-Sep-16 17:14 48.841136 -122.761421 307 12905ft 299kts
09-Sep-16 17:15 48.870032 -122.818003 307 12009ft 294kts
09-Sep-16 17:16 48.903641 -122.884069 307 10963ft 288kts
09-Sep-16 17:17 48.941058 -122.956655 308 9835ft 281kts
09-Sep-16 17:18 48.980967 -123.000943 358 9577ft 245kts
09-Sep-16 17:19 49.029115 -122.998435 2 8458ft 251kts
09-Sep-16 17:20 49.069176 -122.972005 64 7507ft 247kts
09-Sep-16 17:21 49.072808 -122.904861 89 6272ft 260kts
09-Sep-16 17:22 49.071283 -122.840125 93 5428ft 255kts
09-Sep-16 17:23 49.068122 -122.773210 92 4334ft 252kts
09-Sep-16 17:24 49.084078 -122.721404 24 3585ft 229kts
09-Sep-16 17:25 49.124880 -122.720675 328 2905ft 214kts
09-Sep-16 17:26 49.148354 -122.769218 302 2703ft 196kts
09-Sep-16 17:27 49.162506 -122.817131 286 2703ft 198kts
09-Sep-16 17:28 49.167232 -122.864964 277 2683ft 183kts
09-Sep-16 17:29 49.172104 -122.916720 282 2698ft 188kts
09-Sep-16 17:30 49.178156 -122.965856 282 2641ft 186kts
09-Sep-16 17:31 49.183518 -123.012375 282 1933ft 162kts
09-Sep-16 17:32 49.188186 -123.052924 281 1442ft 147kts
09-Sep-16 17:33 49.192405 -123.089980 282 955ft 138kts
09-Sep-16 17:34 49.196583 -123.126418 281 492ft 138kts
09-Sep-16 17:35 49.200871 -123.164694 282 37ft 132kts
09-Sep-16 17:36 49.202765 -123.185347 250 7ft 27kts
09-Sep-16 17:37 49.201499 -123.188012 100 7ft 12kts
09-Sep-16 17:38 49.201487 -123.170371 283 14ft 121kts

Navigation Log

Ident Type
Flight plan parsing failed, navigation log unavailable